sensor_id;sensor_type;location;lat;lon;timestamp;P1;durP1;ratioP1;P2;durP2;ratioP2
71091;SDS011;58751;50.708;7.134;2023-01-24T00:00:56;10.73;;;8.13;;
71091;SDS011;58751;50.708;7.134;2023-01-24T00:03:21;12.57;;;8.73;;
71091;SDS011;58751;50.708;7.134;2023-01-24T00:05:47;11.87;;;9.03;;
71091;SDS011;58751;50.708;7.134;2023-01-24T00:08:14;10.75;;;8.15;;
71091;SDS011;58751;50.708;7.134;2023-01-24T00:10:39;11.45;;;8.38;;
71091;SDS011;58751;50.708;7.134;2023-01-24T00:13:05;8.33;;;6.73;;
71091;SDS011;58751;50.708;7.134;2023-01-24T00:15:30;10.27;;;7.80;;
71091;SDS011;58751;50.708;7.134;2023-01-24T00:17:55;9.70;;;8.20;;
71091;SDS011;58751;50.708;7.134;2023-01-24T00:20:21;8.40;;;7.30;;
71091;SDS011;58751;50.708;7.134;2023-01-24T00:22:46;9.17;;;6.30;;
71091;SDS011;58751;50.708;7.134;2023-01-24T00:25:12;7.60;;;6.33;;
71091;SDS011;58751;50.708;7.134;2023-01-24T00:27:38;7.22;;;6.50;;
71091;SDS011;58751;50.708;7.134;2023-01-24T00:30:03;10.10;;;7.50;;
71091;SDS011;58751;50.708;7.134;2023-01-24T00:32:29;9.23;;;7.53;;
71091;SDS011;58751;50.708;7.134;2023-01-24T00:34:55;7.40;;;6.67;;
71091;SDS011;58751;50.708;7.134;2023-01-24T00:37:20;9.50;;;7.00;;
71091;SDS011;58751;50.708;7.134;2023-01-24T00:39:45;7.90;;;6.47;;
71091;SDS011;58751;50.708;7.134;2023-01-24T00:42:12;7.10;;;6.00;;
71091;SDS011;58751;50.708;7.134;2023-01-24T00:44:37;8.57;;;6.53;;
71091;SDS011;58751;50.708;7.134;2023-01-24T00:47:02;6.93;;;6.23;;
71091;SDS011;58751;50.708;7.134;2023-01-24T00:49:27;6.03;;;5.17;;
71091;SDS011;58751;50.708;7.134;2023-01-24T00:51:53;6.67;;;5.60;;
71091;SDS011;58751;50.708;7.134;2023-01-24T00:54:18;5.67;;;5.00;;
71091;SDS011;58751;50.708;7.134;2023-01-24T00:56:43;6.70;;;5.60;;
71091;SDS011;58751;50.708;7.134;2023-01-24T00:59:10;6.50;;;5.90;;
71091;SDS011;58751;50.708;7.134;2023-01-24T01:01:35;7.93;;;5.97;;
71091;SDS011;58751;50.708;7.134;2023-01-24T01:04:00;8.13;;;6.20;;
71091;SDS011;58751;50.708;7.134;2023-01-24T01:06:26;7.80;;;5.30;;
71091;SDS011;58751;50.708;7.134;2023-01-24T01:08:51;7.70;;;6.00;;
71091;SDS011;58751;50.708;7.134;2023-01-24T01:11:16;6.60;;;5.63;;
71091;SDS011;58751;50.708;7.134;2023-01-24T01:13:42;5.93;;;5.20;;
71091;SDS011;58751;50.708;7.134;2023-01-24T01:16:09;5.83;;;5.13;;
71091;SDS011;58751;50.708;7.134;2023-01-24T01:18:35;6.72;;;5.55;;
71091;SDS011;58751;50.708;7.134;2023-01-24T01:21:00;6.20;;;5.60;;
71091;SDS011;58751;50.708;7.134;2023-01-24T01:23:26;6.00;;;5.40;;
71091;SDS011;58751;50.708;7.134;2023-01-24T01:25:51;5.77;;;5.23;;
71091;SDS011;58751;50.708;7.134;2023-01-24T01:28:16;6.57;;;5.83;;
71091;SDS011;58751;50.708;7.134;2023-01-24T01:30:41;8.43;;;6.60;;
71091;SDS011;58751;50.708;7.134;2023-01-24T01:33:08;6.10;;;5.10;;
71091;SDS011;58751;50.708;7.134;2023-01-24T01:35:33;6.55;;;5.70;;
71091;SDS011;58751;50.708;7.134;2023-01-24T01:37:58;8.30;;;6.30;;
71091;SDS011;58751;50.708;7.134;2023-01-24T01:40:24;8.40;;;6.03;;
71091;SDS011;58751;50.708;7.134;2023-01-24T01:42:50;8.20;;;5.80;;
71091;SDS011;58751;50.708;7.134;2023-01-24T01:45:29;9.35;;;6.60;;
71091;SDS011;58751;50.708;7.134;2023-01-24T01:47:55;7.40;;;6.07;;
71091;SDS011;58751;50.708;7.134;2023-01-24T01:50:23;5.93;;;5.40;;
71091;SDS011;58751;50.708;7.134;2023-01-24T01:52:50;8.40;;;6.30;;
71091;SDS011;58751;50.708;7.134;2023-01-24T01:55:17;6.43;;;5.80;;
71091;SDS011;58751;50.708;7.134;2023-01-24T01:57:43;5.18;;;4.32;;
71091;SDS011;58751;50.708;7.134;2023-01-24T02:00:09;9.40;;;7.33;;
71091;SDS011;58751;50.708;7.134;2023-01-24T02:02:36;7.35;;;6.40;;
71091;SDS011;58751;50.708;7.134;2023-01-24T02:05:04;8.00;;;5.80;;
71091;SDS011;58751;50.708;7.134;2023-01-24T02:07:32;6.55;;;4.90;;
71091;SDS011;58751;50.708;7.134;2023-01-24T02:09:59;4.63;;;4.22;;
71091;SDS011;58751;50.708;7.134;2023-01-24T02:12:25;6.20;;;4.90;;
71091;SDS011;58751;50.708;7.134;2023-01-24T02:14:52;6.22;;;5.45;;
71091;SDS011;58751;50.708;7.134;2023-01-24T02:17:18;5.93;;;5.10;;
71091;SDS011;58751;50.708;7.134;2023-01-24T02:19:46;5.90;;;5.03;;
71091;SDS011;58751;50.708;7.134;2023-01-24T02:22:14;6.97;;;5.93;;
71091;SDS011;58751;50.708;7.134;2023-01-24T02:24:42;6.88;;;6.15;;
71091;SDS011;58751;50.708;7.134;2023-01-24T02:27:10;6.45;;;5.85;;
71091;SDS011;58751;50.708;7.134;2023-01-24T02:29:35;7.50;;;5.80;;
71091;SDS011;58751;50.708;7.134;2023-01-24T02:32:02;6.33;;;4.83;;
71091;SDS011;58751;50.708;7.134;2023-01-24T02:34:27;5.00;;;4.50;;
71091;SDS011;58751;50.708;7.134;2023-01-24T02:36:54;5.40;;;4.60;;
71091;SDS011;58751;50.708;7.134;2023-01-24T02:39:21;7.55;;;5.78;;
71091;SDS011;58751;50.708;7.134;2023-01-24T02:41:48;5.88;;;4.28;;
71091;SDS011;58751;50.708;7.134;2023-01-24T02:44:17;4.88;;;3.97;;
71091;SDS011;58751;50.708;7.134;2023-01-24T02:46:43;8.07;;;5.18;;
71091;SDS011;58751;50.708;7.134;2023-01-24T02:49:09;5.03;;;4.37;;
71091;SDS011;58751;50.708;7.134;2023-01-24T02:51:34;5.97;;;5.37;;
71091;SDS011;58751;50.708;7.134;2023-01-24T02:53:59;6.50;;;5.30;;
71091;SDS011;58751;50.708;7.134;2023-01-24T02:56:24;5.50;;;4.77;;
71091;SDS011;58751;50.708;7.134;2023-01-24T02:58:50;5.83;;;4.50;;
71091;SDS011;58751;50.708;7.134;2023-01-24T03:01:16;5.70;;;5.03;;
71091;SDS011;58751;50.708;7.134;2023-01-24T03:03:41;5.85;;;5.00;;
71091;SDS011;58751;50.708;7.134;2023-01-24T03:06:07;5.00;;;4.20;;
71091;SDS011;58751;50.708;7.134;2023-01-24T03:08:33;7.07;;;5.40;;
71091;SDS011;58751;50.708;7.134;2023-01-24T03:10:58;4.53;;;3.97;;
71091;SDS011;58751;50.708;7.134;2023-01-24T03:13:24;5.27;;;4.87;;
71091;SDS011;58751;50.708;7.134;2023-01-24T03:15:49;5.00;;;4.50;;
71091;SDS011;58751;50.708;7.134;2023-01-24T03:18:15;6.00;;;4.90;;
71091;SDS011;58751;50.708;7.134;2023-01-24T03:20:41;5.82;;;4.55;;
71091;SDS011;58751;50.708;7.134;2023-01-24T03:23:06;4.73;;;3.60;;
71091;SDS011;58751;50.708;7.134;2023-01-24T03:25:31;4.57;;;3.90;;
71091;SDS011;58751;50.708;7.134;2023-01-24T03:28:01;6.23;;;4.57;;
71091;SDS011;58751;50.708;7.134;2023-01-24T03:30:26;6.35;;;4.75;;
71091;SDS011;58751;50.708;7.134;2023-01-24T03:32:52;4.87;;;4.43;;
71091;SDS011;58751;50.708;7.134;2023-01-24T03:35:23;4.72;;;4.32;;
71091;SDS011;58751;50.708;7.134;2023-01-24T03:37:49;6.05;;;4.97;;
71091;SDS011;58751;50.708;7.134;2023-01-24T03:40:14;5.43;;;4.40;;
71091;SDS011;58751;50.708;7.134;2023-01-24T03:42:40;5.75;;;4.82;;
71091;SDS011;58751;50.708;7.134;2023-01-24T03:45:05;4.70;;;4.17;;
71091;SDS011;58751;50.708;7.134;2023-01-24T03:47:31;6.50;;;4.97;;
71091;SDS011;58751;50.708;7.134;2023-01-24T03:49:56;4.80;;;4.30;;
71091;SDS011;58751;50.708;7.134;2023-01-24T03:52:22;6.40;;;4.83;;
71091;SDS011;58751;50.708;7.134;2023-01-24T03:54:48;7.18;;;4.38;;
71091;SDS011;58751;50.708;7.134;2023-01-24T03:57:13;6.87;;;4.90;;
71091;SDS011;58751;50.708;7.134;2023-01-24T03:59:38;4.43;;;4.00;;
71091;SDS011;58751;50.708;7.134;2023-01-24T04:02:03;4.93;;;3.83;;
71091;SDS011;58751;50.708;7.134;2023-01-24T04:04:28;5.70;;;5.10;;
71091;SDS011;58751;50.708;7.134;2023-01-24T04:06:54;5.97;;;5.10;;
71091;SDS011;58751;50.708;7.134;2023-01-24T04:09:20;4.73;;;4.20;;
71091;SDS011;58751;50.708;7.134;2023-01-24T04:11:45;5.22;;;4.60;;
71091;SDS011;58751;50.708;7.134;2023-01-24T04:14:11;5.07;;;4.57;;
71091;SDS011;58751;50.708;7.134;2023-01-24T04:16:36;5.70;;;5.10;;
71091;SDS011;58751;50.708;7.134;2023-01-24T04:19:01;6.60;;;4.67;;
71091;SDS011;58751;50.708;7.134;2023-01-24T04:21:26;6.20;;;5.50;;
71091;SDS011;58751;50.708;7.134;2023-01-24T04:23:51;5.37;;;4.57;;
71091;SDS011;58751;50.708;7.134;2023-01-24T04:26:18;5.73;;;4.60;;
71091;SDS011;58751;50.708;7.134;2023-01-24T04:28:43;5.55;;;5.00;;
71091;SDS011;58751;50.708;7.134;2023-01-24T04:31:08;7.67;;;4.90;;
71091;SDS011;58751;50.708;7.134;2023-01-24T04:33:34;6.47;;;5.20;;
71091;SDS011;58751;50.708;7.134;2023-01-24T04:35:59;5.97;;;5.20;;
71091;SDS011;58751;50.708;7.134;2023-01-24T04:38:24;6.00;;;5.40;;
71091;SDS011;58751;50.708;7.134;2023-01-24T04:40:55;6.77;;;4.83;;
71091;SDS011;58751;50.708;7.134;2023-01-24T04:43:22;5.85;;;4.47;;
71091;SDS011;58751;50.708;7.134;2023-01-24T04:45:47;7.13;;;5.63;;
71091;SDS011;58751;50.708;7.134;2023-01-24T04:48:12;5.80;;;4.47;;
71091;SDS011;58751;50.708;7.134;2023-01-24T04:50:37;6.73;;;5.07;;
71091;SDS011;58751;50.708;7.134;2023-01-24T04:53:03;9.77;;;5.70;;
71091;SDS011;58751;50.708;7.134;2023-01-24T04:55:28;6.40;;;5.30;;
71091;SDS011;58751;50.708;7.134;2023-01-24T04:57:53;5.40;;;4.90;;
71091;SDS011;58751;50.708;7.134;2023-01-24T05:00:20;5.90;;;4.73;;
71091;SDS011;58751;50.708;7.134;2023-01-24T05:02:45;6.15;;;4.80;;
71091;SDS011;58751;50.708;7.134;2023-01-24T05:05:11;6.68;;;4.65;;
71091;SDS011;58751;50.708;7.134;2023-01-24T05:07:36;6.10;;;4.43;;
71091;SDS011;58751;50.708;7.134;2023-01-24T05:10:02;5.53;;;4.40;;
71091;SDS011;58751;50.708;7.134;2023-01-24T05:12:27;4.93;;;4.47;;
71091;SDS011;58751;50.708;7.134;2023-01-24T05:14:52;7.60;;;5.13;;
71091;SDS011;58751;50.708;7.134;2023-01-24T05:17:19;6.77;;;4.97;;
71091;SDS011;58751;50.708;7.134;2023-01-24T05:19:44;6.88;;;5.15;;
71091;SDS011;58751;50.708;7.134;2023-01-24T05:22:09;5.90;;;5.20;;
71091;SDS011;58751;50.708;7.134;2023-01-24T05:24:34;5.07;;;4.63;;
71091;SDS011;58751;50.708;7.134;2023-01-24T05:26:59;8.10;;;5.70;;
71091;SDS011;58751;50.708;7.134;2023-01-24T05:29:25;7.07;;;5.33;;
71091;SDS011;58751;50.708;7.134;2023-01-24T05:31:50;5.30;;;4.80;;
71091;SDS011;58751;50.708;7.134;2023-01-24T05:34:16;6.80;;;5.60;;
71091;SDS011;58751;50.708;7.134;2023-01-24T05:36:42;5.63;;;4.88;;
71091;SDS011;58751;50.708;7.134;2023-01-24T05:39:07;6.83;;;5.60;;
71091;SDS011;58751;50.708;7.134;2023-01-24T05:41:32;7.30;;;5.83;;
71091;SDS011;58751;50.708;7.134;2023-01-24T05:43:57;5.80;;;4.30;;
71091;SDS011;58751;50.708;7.134;2023-01-24T05:46:23;5.87;;;4.60;;
71091;SDS011;58751;50.708;7.134;2023-01-24T05:48:48;7.17;;;5.07;;
71091;SDS011;58751;50.708;7.134;2023-01-24T05:51:15;5.33;;;4.60;;
71091;SDS011;58751;50.708;7.134;2023-01-24T05:53:41;5.97;;;5.03;;
71091;SDS011;58751;50.708;7.134;2023-01-24T05:56:08;5.57;;;4.60;;
71091;SDS011;58751;50.708;7.134;2023-01-24T05:58:35;5.65;;;5.07;;
71091;SDS011;58751;50.708;7.134;2023-01-24T06:01:00;4.75;;;4.35;;
71091;SDS011;58751;50.708;7.134;2023-01-24T06:03:25;5.97;;;4.63;;
71091;SDS011;58751;50.708;7.134;2023-01-24T06:05:51;5.80;;;4.37;;
71091;SDS011;58751;50.708;7.134;2023-01-24T06:08:18;8.45;;;5.13;;
71091;SDS011;58751;50.708;7.134;2023-01-24T06:10:44;6.18;;;5.15;;
71091;SDS011;58751;50.708;7.134;2023-01-24T06:13:09;4.60;;;3.97;;
71091;SDS011;58751;50.708;7.134;2023-01-24T06:15:35;6.13;;;4.70;;
71091;SDS011;58751;50.708;7.134;2023-01-24T06:18:00;5.77;;;5.00;;
71091;SDS011;58751;50.708;7.134;2023-01-24T06:20:26;6.20;;;5.03;;
71091;SDS011;58751;50.708;7.134;2023-01-24T06:22:51;7.00;;;4.57;;
71091;SDS011;58751;50.708;7.134;2023-01-24T06:25:20;5.93;;;5.32;;
71091;SDS011;58751;50.708;7.134;2023-01-24T06:27:47;7.47;;;6.00;;
71091;SDS011;58751;50.708;7.134;2023-01-24T06:30:12;5.43;;;4.67;;
71091;SDS011;58751;50.708;7.134;2023-01-24T06:32:40;6.50;;;4.73;;
71091;SDS011;58751;50.708;7.134;2023-01-24T06:35:11;5.20;;;4.35;;
71091;SDS011;58751;50.708;7.134;2023-01-24T06:37:41;6.35;;;5.45;;
71091;SDS011;58751;50.708;7.134;2023-01-24T06:40:10;6.22;;;5.53;;
71091;SDS011;58751;50.708;7.134;2023-01-24T06:42:37;12.68;;;5.80;;
71091;SDS011;58751;50.708;7.134;2023-01-24T06:45:03;7.75;;;5.32;;
71091;SDS011;58751;50.708;7.134;2023-01-24T06:47:28;8.07;;;5.30;;
71091;SDS011;58751;50.708;7.134;2023-01-24T06:49:53;7.80;;;5.40;;
71091;SDS011;58751;50.708;7.134;2023-01-24T06:52:18;8.73;;;5.77;;
71091;SDS011;58751;50.708;7.134;2023-01-24T06:54:44;6.07;;;5.00;;
71091;SDS011;58751;50.708;7.134;2023-01-24T06:57:09;5.70;;;5.10;;
71091;SDS011;58751;50.708;7.134;2023-01-24T06:59:35;5.87;;;5.27;;
71091;SDS011;58751;50.708;7.134;2023-01-24T07:02:01;6.30;;;5.70;;
71091;SDS011;58751;50.708;7.134;2023-01-24T07:04:26;7.80;;;4.80;;
71091;SDS011;58751;50.708;7.134;2023-01-24T07:06:51;12.60;;;5.10;;
71091;SDS011;58751;50.708;7.134;2023-01-24T07:09:16;9.60;;;5.30;;
71091;SDS011;58751;50.708;7.134;2023-01-24T07:11:42;6.90;;;5.50;;
71091;SDS011;58751;50.708;7.134;2023-01-24T07:14:07;7.80;;;5.60;;
71091;SDS011;58751;50.708;7.134;2023-01-24T07:16:33;7.40;;;5.73;;
71091;SDS011;58751;50.708;7.134;2023-01-24T07:18:59;6.03;;;5.43;;
71091;SDS011;58751;50.708;7.134;2023-01-24T07:21:24;5.10;;;4.60;;
71091;SDS011;58751;50.708;7.134;2023-01-24T07:23:49;10.57;;;4.60;;
71091;SDS011;58751;50.708;7.134;2023-01-24T07:26:18;8.45;;;5.90;;
71091;SDS011;58751;50.708;7.134;2023-01-24T07:28:43;5.40;;;4.50;;
71091;SDS011;58751;50.708;7.134;2023-01-24T07:31:09;5.30;;;4.80;;
71091;SDS011;58751;50.708;7.134;2023-01-24T07:33:36;5.82;;;4.82;;
71091;SDS011;58751;50.708;7.134;2023-01-24T07:36:11;6.55;;;4.68;;
71091;SDS011;58751;50.708;7.134;2023-01-24T07:38:36;5.13;;;3.85;;
71091;SDS011;58751;50.708;7.134;2023-01-24T07:41:05;5.37;;;4.30;;
71091;SDS011;58751;50.708;7.134;2023-01-24T07:43:30;4.93;;;4.43;;
71091;SDS011;58751;50.708;7.134;2023-01-24T07:45:55;7.20;;;5.67;;
71091;SDS011;58751;50.708;7.134;2023-01-24T07:48:20;5.30;;;4.63;;
71091;SDS011;58751;50.708;7.134;2023-01-24T07:50:47;4.43;;;4.03;;
71091;SDS011;58751;50.708;7.134;2023-01-24T07:53:12;5.75;;;4.72;;
71091;SDS011;58751;50.708;7.134;2023-01-24T07:55:37;7.27;;;5.27;;
71091;SDS011;58751;50.708;7.134;2023-01-24T07:58:03;5.40;;;4.70;;
71091;SDS011;58751;50.708;7.134;2023-01-24T08:00:28;6.23;;;4.63;;
71091;SDS011;58751;50.708;7.134;2023-01-24T08:02:53;7.30;;;5.47;;
71091;SDS011;58751;50.708;7.134;2023-01-24T08:05:18;7.70;;;5.70;;
71091;SDS011;58751;50.708;7.134;2023-01-24T08:07:45;6.03;;;5.43;;
71091;SDS011;58751;50.708;7.134;2023-01-24T08:10:10;7.20;;;5.47;;
71091;SDS011;58751;50.708;7.134;2023-01-24T08:12:36;6.70;;;5.13;;
71091;SDS011;58751;50.708;7.134;2023-01-24T08:15:01;5.80;;;5.20;;
71091;SDS011;58751;50.708;7.134;2023-01-24T08:17:26;5.27;;;4.67;;
71091;SDS011;58751;50.708;7.134;2023-01-24T08:19:51;4.30;;;3.80;;
71091;SDS011;58751;50.708;7.134;2023-01-24T08:22:16;6.50;;;4.53;;
71091;SDS011;58751;50.708;7.134;2023-01-24T08:24:43;6.27;;;4.60;;
71091;SDS011;58751;50.708;7.134;2023-01-24T08:27:08;5.28;;;4.35;;
71091;SDS011;58751;50.708;7.134;2023-01-24T08:29:33;5.13;;;4.63;;
71091;SDS011;58751;50.708;7.134;2023-01-24T08:31:59;6.70;;;5.70;;
71091;SDS011;58751;50.708;7.134;2023-01-24T08:34:24;5.77;;;5.27;;
71091;SDS011;58751;50.708;7.134;2023-01-24T08:36:49;5.10;;;4.70;;
71091;SDS011;58751;50.708;7.134;2023-01-24T08:39:14;7.00;;;5.30;;
71091;SDS011;58751;50.708;7.134;2023-01-24T08:41:42;5.93;;;4.80;;
71091;SDS011;58751;50.708;7.134;2023-01-24T08:44:07;4.38;;;3.97;;
71091;SDS011;58751;50.708;7.134;2023-01-24T08:46:32;6.00;;;4.63;;
71091;SDS011;58751;50.708;7.134;2023-01-24T08:48:58;7.13;;;5.60;;
71091;SDS011;58751;50.708;7.134;2023-01-24T08:51:23;5.60;;;5.10;;
71091;SDS011;58751;50.708;7.134;2023-01-24T08:53:48;5.20;;;4.43;;
71091;SDS011;58751;50.708;7.134;2023-01-24T08:56:13;6.90;;;5.00;;
71091;SDS011;58751;50.708;7.134;2023-01-24T08:58:40;6.80;;;4.70;;
71091;SDS011;58751;50.708;7.134;2023-01-24T09:01:05;5.10;;;4.60;;
71091;SDS011;58751;50.708;7.134;2023-01-24T09:03:31;7.07;;;5.63;;
71091;SDS011;58751;50.708;7.134;2023-01-24T09:05:56;5.97;;;4.57;;
71091;SDS011;58751;50.708;7.134;2023-01-24T09:08:21;6.13;;;4.77;;
71091;SDS011;58751;50.708;7.134;2023-01-24T09:10:47;6.00;;;5.17;;
71091;SDS011;58751;50.708;7.134;2023-01-24T09:13:12;8.83;;;5.53;;
71091;SDS011;58751;50.708;7.134;2023-01-24T09:15:38;5.20;;;4.70;;
71091;SDS011;58751;50.708;7.134;2023-01-24T09:18:04;5.95;;;5.03;;
71091;SDS011;58751;50.708;7.134;2023-01-24T09:20:29;4.77;;;4.30;;
71091;SDS011;58751;50.708;7.134;2023-01-24T09:22:54;7.57;;;4.40;;
71091;SDS011;58751;50.708;7.134;2023-01-24T09:25:19;5.40;;;4.50;;
71091;SDS011;58751;50.708;7.134;2023-01-24T09:27:49;6.37;;;4.50;;
71091;SDS011;58751;50.708;7.134;2023-01-24T09:30:17;5.40;;;4.85;;
71091;SDS011;58751;50.708;7.134;2023-01-24T09:32:44;5.93;;;4.80;;
71091;SDS011;58751;50.708;7.134;2023-01-24T09:35:09;5.90;;;5.30;;
71091;SDS011;58751;50.708;7.134;2023-01-24T09:37:34;5.67;;;5.07;;
71091;SDS011;58751;50.708;7.134;2023-01-24T09:40:00;8.33;;;7.37;;
71091;SDS011;58751;50.708;7.134;2023-01-24T09:42:27;9.60;;;5.50;;
71091;SDS011;58751;50.708;7.134;2023-01-24T09:44:54;6.72;;;5.20;;
71091;SDS011;58751;50.708;7.134;2023-01-24T09:47:25;6.15;;;5.20;;
71091;SDS011;58751;50.708;7.134;2023-01-24T09:49:54;6.65;;;4.97;;
71091;SDS011;58751;50.708;7.134;2023-01-24T09:52:24;5.85;;;4.85;;
71091;SDS011;58751;50.708;7.134;2023-01-24T09:54:50;6.38;;;4.95;;
71091;SDS011;58751;50.708;7.134;2023-01-24T09:57:17;6.38;;;5.25;;
71091;SDS011;58751;50.708;7.134;2023-01-24T09:59:44;6.07;;;5.45;;
71091;SDS011;58751;50.708;7.134;2023-01-24T10:02:15;5.95;;;4.90;;
71091;SDS011;58751;50.708;7.134;2023-01-24T10:04:40;5.68;;;5.18;;
71091;SDS011;58751;50.708;7.134;2023-01-24T10:07:30;5.57;;;4.70;;
71091;SDS011;58751;50.708;7.134;2023-01-24T10:10:06;5.88;;;5.32;;
71091;SDS011;58751;50.708;7.134;2023-01-24T10:12:42;5.53;;;4.97;;
71091;SDS011;58751;50.708;7.134;2023-01-24T10:15:12;5.95;;;5.10;;
71091;SDS011;58751;50.708;7.134;2023-01-24T10:17:42;8.00;;;5.82;;
71091;SDS011;58751;50.708;7.134;2023-01-24T10:20:26;5.55;;;5.05;;
71091;SDS011;58751;50.708;7.134;2023-01-24T10:23:04;5.00;;;4.50;;
71091;SDS011;58751;50.708;7.134;2023-01-24T10:25:31;5.80;;;5.20;;
71091;SDS011;58751;50.708;7.134;2023-01-24T10:27:58;6.05;;;4.72;;
71091;SDS011;58751;50.708;7.134;2023-01-24T10:30:26;7.20;;;5.30;;
71091;SDS011;58751;50.708;7.134;2023-01-24T10:32:55;5.85;;;4.63;;
71091;SDS011;58751;50.708;7.134;2023-01-24T10:35:22;6.97;;;5.55;;
71091;SDS011;58751;50.708;7.134;2023-01-24T10:37:53;7.32;;;5.95;;
71091;SDS011;58751;50.708;7.134;2023-01-24T10:40:20;6.15;;;5.25;;
71091;SDS011;58751;50.708;7.134;2023-01-24T10:42:45;6.85;;;6.05;;
71091;SDS011;58751;50.708;7.134;2023-01-24T10:45:18;8.73;;;6.50;;
71091;SDS011;58751;50.708;7.134;2023-01-24T10:47:49;8.57;;;6.07;;
71091;SDS011;58751;50.708;7.134;2023-01-24T10:50:17;9.48;;;6.40;;
71091;SDS011;58751;50.708;7.134;2023-01-24T10:52:42;6.72;;;5.45;;
71091;SDS011;58751;50.708;7.134;2023-01-24T10:55:23;6.23;;;5.33;;
71091;SDS011;58751;50.708;7.134;2023-01-24T10:57:49;8.25;;;6.03;;
71091;SDS011;58751;50.708;7.134;2023-01-24T11:00:17;7.88;;;6.25;;
71091;SDS011;58751;50.708;7.134;2023-01-24T11:02:44;8.15;;;5.72;;
71091;SDS011;58751;50.708;7.134;2023-01-24T11:05:12;7.78;;;6.50;;
71091;SDS011;58751;50.708;7.134;2023-01-24T11:07:38;7.15;;;5.30;;
71091;SDS011;58751;50.708;7.134;2023-01-24T11:10:10;7.22;;;5.68;;
71091;SDS011;58751;50.708;7.134;2023-01-24T11:12:47;7.65;;;6.25;;
71091;SDS011;58751;50.708;7.134;2023-01-24T11:15:14;6.55;;;5.47;;
71091;SDS011;58751;50.708;7.134;2023-01-24T11:17:40;6.97;;;6.00;;
71091;SDS011;58751;50.708;7.134;2023-01-24T11:20:16;8.40;;;6.40;;
71091;SDS011;58751;50.708;7.134;2023-01-24T11:22:48;7.70;;;6.40;;
71091;SDS011;58751;50.708;7.134;2023-01-24T11:25:14;7.10;;;6.40;;
71091;SDS011;58751;50.708;7.134;2023-01-24T11:27:44;7.93;;;6.70;;
71091;SDS011;58751;50.708;7.134;2023-01-24T11:30:15;7.55;;;5.70;;
71091;SDS011;58751;50.708;7.134;2023-01-24T11:32:43;7.03;;;6.30;;
71091;SDS011;58751;50.708;7.134;2023-01-24T11:35:10;7.68;;;6.57;;
71091;SDS011;58751;50.708;7.134;2023-01-24T11:37:43;6.57;;;5.60;;
71091;SDS011;58751;50.708;7.134;2023-01-24T11:40:16;7.75;;;6.65;;
71091;SDS011;58751;50.708;7.134;2023-01-24T11:42:44;10.35;;;6.90;;
71091;SDS011;58751;50.708;7.134;2023-01-24T11:45:24;9.48;;;6.97;;
71091;SDS011;58751;50.708;7.134;2023-01-24T11:47:52;7.40;;;6.40;;
71091;SDS011;58751;50.708;7.134;2023-01-24T11:50:26;7.15;;;5.97;;
71091;SDS011;58751;50.708;7.134;2023-01-24T11:52:55;9.32;;;7.05;;
71091;SDS011;58751;50.708;7.134;2023-01-24T11:55:26;8.50;;;7.50;;
71091;SDS011;58751;50.708;7.134;2023-01-24T11:57:55;8.27;;;6.75;;
71091;SDS011;58751;50.708;7.134;2023-01-24T12:00:27;8.60;;;6.20;;
71091;SDS011;58751;50.708;7.134;2023-01-24T12:05:45;7.88;;;7.07;;
71091;SDS011;58751;50.708;7.134;2023-01-24T12:08:16;10.15;;;6.40;;
71091;SDS011;58751;50.708;7.134;2023-01-24T12:10:47;9.18;;;6.47;;
71091;SDS011;58751;50.708;7.134;2023-01-24T12:13:15;12.85;;;6.90;;
71091;SDS011;58751;50.708;7.134;2023-01-24T12:15:49;6.93;;;6.22;;
71091;SDS011;58751;50.708;7.134;2023-01-24T12:18:24;7.07;;;5.78;;
71091;SDS011;58751;50.708;7.134;2023-01-24T12:20:58;14.60;;;7.78;;
71091;SDS011;58751;50.708;7.134;2023-01-24T12:23:24;7.50;;;6.70;;
71091;SDS011;58751;50.708;7.134;2023-01-24T12:25:51;7.57;;;6.65;;
71091;SDS011;58751;50.708;7.134;2023-01-24T12:28:20;7.93;;;6.10;;
71091;SDS011;58751;50.708;7.134;2023-01-24T12:30:50;7.25;;;6.55;;
71091;SDS011;58751;50.708;7.134;2023-01-24T12:33:17;6.93;;;6.03;;
71091;SDS011;58751;50.708;7.134;2023-01-24T12:35:46;10.10;;;7.25;;
71091;SDS011;58751;50.708;7.134;2023-01-24T12:38:13;7.65;;;6.75;;
71091;SDS011;58751;50.708;7.134;2023-01-24T12:40:44;9.40;;;7.05;;
71091;SDS011;58751;50.708;7.134;2023-01-24T12:43:13;8.88;;;6.78;;
71091;SDS011;58751;50.708;7.134;2023-01-24T12:45:41;7.95;;;6.10;;
71091;SDS011;58751;50.708;7.134;2023-01-24T12:48:10;7.20;;;6.50;;
71091;SDS011;58751;50.708;7.134;2023-01-24T12:50:40;9.80;;;6.05;;
71091;SDS011;58751;50.708;7.134;2023-01-24T12:53:10;8.48;;;5.93;;
71091;SDS011;58751;50.708;7.134;2023-01-24T12:55:39;7.40;;;6.30;;
71091;SDS011;58751;50.708;7.134;2023-01-24T12:58:08;9.25;;;6.20;;
71091;SDS011;58751;50.708;7.134;2023-01-24T13:00:37;7.68;;;6.45;;
71091;SDS011;58751;50.708;7.134;2023-01-24T13:03:20;6.22;;;5.60;;
71091;SDS011;58751;50.708;7.134;2023-01-24T13:05:48;7.13;;;6.03;;
71091;SDS011;58751;50.708;7.134;2023-01-24T13:08:21;7.80;;;6.55;;
71091;SDS011;58751;50.708;7.134;2023-01-24T13:10:50;7.97;;;7.07;;
71091;SDS011;58751;50.708;7.134;2023-01-24T13:13:17;6.75;;;6.07;;
71091;SDS011;58751;50.708;7.134;2023-01-24T13:15:46;7.63;;;6.80;;
71091;SDS011;58751;50.708;7.134;2023-01-24T13:18:21;6.60;;;6.00;;
71091;SDS011;58751;50.708;7.134;2023-01-24T13:20:54;8.25;;;6.70;;
71091;SDS011;58751;50.708;7.134;2023-01-24T13:23:40;6.97;;;6.15;;
71091;SDS011;58751;50.708;7.134;2023-01-24T13:26:17;7.88;;;6.60;;
71091;SDS011;58751;50.708;7.134;2023-01-24T13:28:49;7.97;;;7.28;;
71091;SDS011;58751;50.708;7.134;2023-01-24T13:31:19;8.43;;;7.22;;
71091;SDS011;58751;50.708;7.134;2023-01-24T13:33:49;10.98;;;7.72;;
71091;SDS011;58751;50.708;7.134;2023-01-24T13:36:16;7.25;;;5.93;;
71091;SDS011;58751;50.708;7.134;2023-01-24T13:38:42;9.07;;;7.28;;
71091;SDS011;58751;50.708;7.134;2023-01-24T13:41:13;6.20;;;5.60;;
71091;SDS011;58751;50.708;7.134;2023-01-24T13:49:17;9.68;;;6.30;;
71091;SDS011;58751;50.708;7.134;2023-01-24T13:51:43;8.23;;;6.20;;
71091;SDS011;58751;50.708;7.134;2023-01-24T13:54:15;9.00;;;6.25;;
71091;SDS011;58751;50.708;7.134;2023-01-24T13:59:21;7.75;;;5.97;;
71091;SDS011;58751;50.708;7.134;2023-01-24T14:01:46;7.83;;;6.87;;
71091;SDS011;58751;50.708;7.134;2023-01-24T14:04:11;7.20;;;6.47;;
71091;SDS011;58751;50.708;7.134;2023-01-24T14:06:41;9.30;;;7.00;;
71091;SDS011;58751;50.708;7.134;2023-01-24T14:09:13;7.03;;;6.30;;
71091;SDS011;58751;50.708;7.134;2023-01-24T14:11:55;7.43;;;6.25;;
71091;SDS011;58751;50.708;7.134;2023-01-24T14:14:29;8.00;;;6.72;;
71091;SDS011;58751;50.708;7.134;2023-01-24T14:19:49;9.10;;;7.95;;
71091;SDS011;58751;50.708;7.134;2023-01-24T14:22:20;8.32;;;7.18;;
71091;SDS011;58751;50.708;7.134;2023-01-24T14:24:56;7.20;;;6.43;;
71091;SDS011;58751;50.708;7.134;2023-01-24T14:27:24;7.28;;;6.15;;
71091;SDS011;58751;50.708;7.134;2023-01-24T14:29:50;7.28;;;6.57;;
71091;SDS011;58751;50.708;7.134;2023-01-24T14:32:18;10.48;;;8.07;;
71091;SDS011;58751;50.708;7.134;2023-01-24T14:34:46;7.65;;;6.85;;
71091;SDS011;58751;50.708;7.134;2023-01-24T14:37:16;11.18;;;7.53;;
71091;SDS011;58751;50.708;7.134;2023-01-24T14:39:43;9.25;;;6.97;;
71091;SDS011;58751;50.708;7.134;2023-01-24T14:42:11;7.25;;;6.47;;
71091;SDS011;58751;50.708;7.134;2023-01-24T14:44:37;7.50;;;6.90;;
71091;SDS011;58751;50.708;7.134;2023-01-24T14:47:04;8.52;;;6.65;;
71091;SDS011;58751;50.708;7.134;2023-01-24T14:49:31;8.05;;;6.80;;
71091;SDS011;58751;50.708;7.134;2023-01-24T14:51:56;7.00;;;6.35;;
71091;SDS011;58751;50.708;7.134;2023-01-24T14:54:22;6.77;;;5.93;;
71091;SDS011;58751;50.708;7.134;2023-01-24T14:56:49;8.00;;;6.80;;
71091;SDS011;58751;50.708;7.134;2023-01-24T14:59:15;8.32;;;6.55;;
71091;SDS011;58751;50.708;7.134;2023-01-24T15:01:41;9.90;;;7.45;;